createdAt,value
2019-03-23T00:01:14.195Z,11.00
2019-03-23T00:03:43.630Z,11.20
2019-03-23T00:06:13.101Z,11.40
2019-03-23T00:08:42.549Z,11.60
2019-03-23T00:11:12.015Z,11.70
2019-03-23T00:13:41.449Z,11.80
2019-03-23T00:16:10.918Z,11.70
2019-03-23T00:18:40.364Z,11.70
2019-03-23T00:21:09.824Z,11.70
2019-03-23T00:23:39.341Z,11.60
2019-03-23T00:26:08.809Z,11.70
2019-03-23T00:28:39.324Z,11.70
2019-03-23T00:31:08.791Z,11.70
2019-03-23T00:33:38.238Z,11.60
2019-03-23T00:36:07.750Z,11.60
2019-03-23T00:38:37.194Z,11.70
2019-03-23T00:41:06.674Z,11.70
2019-03-23T00:43:36.193Z,11.80
2019-03-23T00:46:05.658Z,11.70
2019-03-23T00:48:35.100Z,11.70
2019-03-23T00:51:04.646Z,11.60
2019-03-23T00:53:34.090Z,11.60
2019-03-23T00:56:03.635Z,11.60
2019-03-23T00:58:33.079Z,11.60
2019-03-23T01:01:02.566Z,11.60
2019-03-23T01:03:32.008Z,11.60
2019-03-23T01:06:01.461Z,11.50
2019-03-23T01:08:30.922Z,11.40
2019-03-23T01:11:00.366Z,11.50
2019-03-23T01:13:29.832Z,11.50
2019-03-23T01:15:59.282Z,11.30
2019-03-23T01:18:28.756Z,11.20
2019-03-23T01:20:58.194Z,11.20
2019-03-23T01:23:27.664Z,11.30
2019-03-23T01:25:57.152Z,11.30
2019-03-23T01:28:26.586Z,11.40
2019-03-23T01:30:56.022Z,11.40
2019-03-23T01:33:25.498Z,11.30
2019-03-23T01:35:54.941Z,11.30
2019-03-23T01:38:24.404Z,11.20
2019-03-23T01:40:53.849Z,10.20
2019-03-23T01:43:23.320Z,9.80
2019-03-23T01:45:52.754Z,9.60
2019-03-23T01:48:22.304Z,9.40
2019-03-23T01:50:51.754Z,9.10
2019-03-23T01:53:21.223Z,9.00
2019-03-23T01:55:51.087Z,8.80
2019-03-23T01:58:20.558Z,8.60
2019-03-23T02:00:50.001Z,8.60
2019-03-23T02:03:20.538Z,8.70
2019-03-23T02:05:49.989Z,8.80
2019-03-23T02:08:19.457Z,8.70
2019-03-23T02:10:48.903Z,8.80
2019-03-23T02:13:18.373Z,8.80
2019-03-23T02:15:47.821Z,8.50
2019-03-23T02:18:18.258Z,8.10
2019-03-23T02:20:47.903Z,8.00
2019-03-23T02:23:17.374Z,7.80
2019-03-23T02:25:46.818Z,7.60
2019-03-23T02:28:16.278Z,7.70
2019-03-23T02:30:45.725Z,7.50
2019-03-23T02:33:15.220Z,7.40
2019-03-23T02:35:44.642Z,7.30
2019-03-23T02:38:14.111Z,7.10
2019-03-23T02:40:43.553Z,6.90
2019-03-23T02:43:13.021Z,6.70
2019-03-23T02:45:42.460Z,6.70
2019-03-23T02:48:11.927Z,6.90
2019-03-23T02:50:41.382Z,7.20
2019-03-23T02:53:10.844Z,7.20
2019-03-23T02:55:40.277Z,7.30
2019-03-23T02:58:09.815Z,7.20
2019-03-23T03:00:39.268Z,7.00
2019-03-23T03:03:08.830Z,7.00
2019-03-23T03:05:38.274Z,6.70
2019-03-23T03:08:07.738Z,6.50
2019-03-23T03:10:41.282Z,6.20
2019-03-23T03:13:10.912Z,6.10
2019-03-23T03:15:40.432Z,6.00
2019-03-23T03:18:09.911Z,5.80
2019-03-23T03:20:39.422Z,5.70
2019-03-23T03:23:08.916Z,5.70
2019-03-23T03:25:38.343Z,5.60
2019-03-23T03:28:07.810Z,5.60
2019-03-23T03:30:37.263Z,5.50
2019-03-23T03:33:06.737Z,5.50
2019-03-23T03:35:36.190Z,5.50
2019-03-23T03:38:05.652Z,5.40
2019-03-23T03:40:35.110Z,5.20
2019-03-23T03:43:04.655Z,5.10
2019-03-23T03:45:34.184Z,5.20
2019-03-23T03:48:03.667Z,5.20
2019-03-23T03:50:33.118Z,5.50
2019-03-23T03:53:03.655Z,5.80
2019-03-23T03:55:33.113Z,6.00
2019-03-23T03:58:02.569Z,5.80
2019-03-23T04:00:32.013Z,5.60
2019-03-23T04:03:01.493Z,5.30
2019-03-23T04:05:30.981Z,5.20
2019-03-23T04:08:10.926Z,5.30
2019-03-23T04:10:31.512Z,5.80
2019-03-23T04:13:00.982Z,6.00
2019-03-23T04:15:30.434Z,6.10
2019-03-23T04:17:59.906Z,6.00
2019-03-23T04:20:29.348Z,5.90
2019-03-23T04:22:58.824Z,5.70
2019-03-23T04:25:28.270Z,5.60
2019-03-23T04:27:57.751Z,5.70
2019-03-23T04:30:27.198Z,5.80
2019-03-23T04:32:56.694Z,5.80
2019-03-23T04:35:26.121Z,6.00
2019-03-23T04:37:55.591Z,6.00
2019-03-23T04:40:25.044Z,6.10
2019-03-23T04:42:54.521Z,6.20
2019-03-23T04:45:23.969Z,6.20
2019-03-23T04:47:53.477Z,6.30
2019-03-23T04:50:22.962Z,6.30
2019-03-23T04:52:52.438Z,6.40
2019-03-23T04:55:21.900Z,6.40
2019-03-23T04:57:51.374Z,6.40
2019-03-23T05:00:20.969Z,6.40
2019-03-23T05:02:50.477Z,6.50
2019-03-23T05:05:19.980Z,6.50
2019-03-23T05:07:49.446Z,6.50
2019-03-23T05:10:19.977Z,6.60
2019-03-23T05:12:49.450Z,6.70
2019-03-23T05:15:18.910Z,6.60
2019-03-23T05:17:48.387Z,6.70
2019-03-23T05:20:29.172Z,6.70
2019-03-23T05:22:59.867Z,6.80
2019-03-23T05:25:29.865Z,6.70
2019-03-23T05:27:59.487Z,6.70
2019-03-23T05:30:28.948Z,6.70
2019-03-23T05:32:58.443Z,6.70
2019-03-23T05:35:27.930Z,6.70
2019-03-23T05:37:58.494Z,6.70
2019-03-23T05:40:27.952Z,6.70
2019-03-23T05:42:57.446Z,6.70
2019-03-23T05:45:26.908Z,6.70
2019-03-23T05:47:56.387Z,6.70
2019-03-23T05:50:25.867Z,6.70
2019-03-23T05:52:55.341Z,6.70
2019-03-23T05:55:24.799Z,6.60
2019-03-23T05:57:54.280Z,6.70
2019-03-23T06:00:23.738Z,6.70
2019-03-23T06:02:53.220Z,6.70
2019-03-23T06:05:24.605Z,6.70
2019-03-23T06:07:54.856Z,6.60
2019-03-23T06:10:24.379Z,6.50
2019-03-23T06:12:53.882Z,6.60
2019-03-23T06:15:23.335Z,6.60
2019-03-23T06:17:52.825Z,6.80
2019-03-23T06:20:22.298Z,6.80
2019-03-23T06:22:51.789Z,6.80
2019-03-23T06:25:21.247Z,6.80
2019-03-23T06:27:50.727Z,6.70
2019-03-23T06:30:20.183Z,6.80
2019-03-23T06:32:49.672Z,6.70
2019-03-23T06:35:19.151Z,6.70
2019-03-23T06:37:48.649Z,6.80
2019-03-23T06:40:18.099Z,6.80
2019-03-23T06:42:47.601Z,6.90
2019-03-23T06:45:17.130Z,6.80
2019-03-23T06:47:46.623Z,6.80
2019-03-23T06:50:17.055Z,6.80
2019-03-23T06:52:46.570Z,6.80
2019-03-23T06:55:16.022Z,6.80
2019-03-23T06:57:45.481Z,6.90
2019-03-23T07:00:16.503Z,6.90
2019-03-23T07:02:46.035Z,6.80
2019-03-23T07:05:15.578Z,6.80
2019-03-23T07:07:45.060Z,6.80
2019-03-23T07:10:15.002Z,6.70
2019-03-23T07:12:44.457Z,6.70
2019-03-23T07:15:19.896Z,6.80
2019-03-23T07:17:45.379Z,6.80
2019-03-23T07:20:15.097Z,6.90
2019-03-23T07:22:44.574Z,6.90
2019-03-23T07:25:14.190Z,6.80
2019-03-23T07:27:43.653Z,6.70
2019-03-23T07:30:18.008Z,6.70
2019-03-23T07:32:47.499Z,6.70
2019-03-23T07:35:17.130Z,6.80
2019-03-23T07:37:46.590Z,6.70
2019-03-23T07:40:16.223Z,6.60
2019-03-23T07:42:45.766Z,6.50
2019-03-23T07:45:16.196Z,6.60
2019-03-23T07:47:45.709Z,6.60
2019-03-23T07:50:15.638Z,6.60
2019-03-23T07:52:45.292Z,6.60
2019-03-23T07:55:16.583Z,6.40
2019-03-23T07:57:46.193Z,6.50
2019-03-23T08:00:20.105Z,6.60
2019-03-23T08:02:49.595Z,6.50
2019-03-23T08:05:19.162Z,6.30
2019-03-23T08:07:48.642Z,6.30
2019-03-23T08:10:31.215Z,6.20
2019-03-23T08:13:01.007Z,6.30
2019-03-23T08:15:31.856Z,6.30
2019-03-23T08:18:01.314Z,6.30
2019-03-23T08:20:30.854Z,6.20
2019-03-23T08:23:00.315Z,6.20
2019-03-23T08:25:29.822Z,6.20
2019-03-23T08:27:59.278Z,6.30
2019-03-23T08:30:28.770Z,6.30
2019-03-23T08:32:58.217Z,6.40
2019-03-23T08:35:27.705Z,6.20
2019-03-23T08:37:57.167Z,6.30
2019-03-23T08:40:27.632Z,6.50
2019-03-23T08:42:57.174Z,6.60
2019-03-23T08:45:26.659Z,6.40
2019-03-23T08:47:57.187Z,6.60
2019-03-23T08:50:26.700Z,6.50
2019-03-23T08:52:56.166Z,6.60
2019-03-23T08:55:25.642Z,6.40
2019-03-23T08:57:55.102Z,6.40
2019-03-23T09:00:24.591Z,6.30
2019-03-23T09:02:54.049Z,6.40
2019-03-23T09:05:23.547Z,6.50
2019-03-23T09:07:53.090Z,6.60
2019-03-23T09:10:22.578Z,6.60
2019-03-23T09:12:52.038Z,6.70
2019-03-23T09:15:21.513Z,6.70
2019-03-23T09:17:50.975Z,6.80
2019-03-23T09:20:20.523Z,6.70
2019-03-23T09:22:51.080Z,7.00
2019-03-23T09:25:20.575Z,6.90
2019-03-23T09:27:50.031Z,7.00
2019-03-23T09:30:19.602Z,7.20
2019-03-23T09:32:49.058Z,7.30
2019-03-23T09:35:18.541Z,7.40
2019-03-23T09:37:48.005Z,7.50
2019-03-23T09:40:17.551Z,7.80
2019-03-23T09:42:47.026Z,8.00
2019-03-23T09:45:16.569Z,8.40
2019-03-23T09:47:46.027Z,8.60
2019-03-23T09:50:15.655Z,9.10
2019-03-23T09:52:45.180Z,9.50
2019-03-23T09:55:14.691Z,9.80
2019-03-23T09:57:44.163Z,9.80
2019-03-23T10:00:13.778Z,9.40
2019-03-23T10:02:43.239Z,9.20
2019-03-23T10:05:12.726Z,9.20
2019-03-23T10:07:42.202Z,9.30
2019-03-23T10:10:21.402Z,9.20
2019-03-23T10:12:42.838Z,9.50
2019-03-23T10:15:12.383Z,9.40
2019-03-23T10:17:41.839Z,9.30
2019-03-23T10:20:11.892Z,9.40
2019-03-23T10:22:41.353Z,9.30
2019-03-23T10:25:10.942Z,9.30
2019-03-23T10:27:40.406Z,9.50
2019-03-23T10:30:11.016Z,9.60
2019-03-23T10:32:40.568Z,9.60
2019-03-23T10:35:11.255Z,9.50
2019-03-23T10:37:41.797Z,9.70
2019-03-23T10:40:11.890Z,9.50
2019-03-23T10:42:43.275Z,9.40
2019-03-23T10:45:13.074Z,9.70
2019-03-23T10:47:42.603Z,10.10
2019-03-23T10:50:13.629Z,10.20
2019-03-23T10:52:43.096Z,10.20
2019-03-23T10:55:12.621Z,10.60
2019-03-23T10:57:42.125Z,11.00
2019-03-23T11:00:13.755Z,11.20
2019-03-23T11:02:43.512Z,11.00
2019-03-23T11:05:13.093Z,10.90
2019-03-23T11:07:42.593Z,10.60
2019-03-23T11:10:14.262Z,10.80
2019-03-23T11:12:43.754Z,11.00
2019-03-23T11:15:13.377Z,11.20
2019-03-23T11:17:42.857Z,11.40
2019-03-23T11:20:13.746Z,11.50
2019-03-23T11:22:43.221Z,11.60
2019-03-23T11:25:13.973Z,11.70
2019-03-23T11:27:43.440Z,11.90
2019-03-23T11:30:14.604Z,12.00
2019-03-23T11:32:44.103Z,12.60
2019-03-23T11:35:13.768Z,12.60
2019-03-23T11:37:43.512Z,12.50
2019-03-23T11:40:14.273Z,12.40
2019-03-23T11:42:49.755Z,12.00
2019-03-23T11:45:14.888Z,12.20
2019-03-23T11:47:45.420Z,12.50
2019-03-23T11:50:15.131Z,12.60
2019-03-23T11:52:46.928Z,12.40
2019-03-23T11:55:15.666Z,12.30
2019-03-23T11:57:45.137Z,12.40
2019-03-23T12:00:15.427Z,12.20
2019-03-23T12:02:44.984Z,12.50
2019-03-23T12:05:14.663Z,12.90
2019-03-23T12:07:44.264Z,13.20
2019-03-23T12:10:14.445Z,13.20
2019-03-23T12:12:43.933Z,13.40
2019-03-23T12:15:14.344Z,13.10
2019-03-23T12:17:44.839Z,13.60
2019-03-23T12:20:14.495Z,13.80
2019-03-23T12:22:43.962Z,14.00
2019-03-23T12:25:13.570Z,13.80
2019-03-23T12:27:44.132Z,14.20
2019-03-23T12:30:16.788Z,14.60
2019-03-23T12:32:46.260Z,14.30
2019-03-23T12:35:15.715Z,13.90
2019-03-23T12:37:45.222Z,14.30
2019-03-23T12:40:15.738Z,14.80
2019-03-23T12:42:45.216Z,15.20
2019-03-23T12:45:14.999Z,14.60
2019-03-23T12:47:44.496Z,14.40
2019-03-23T12:50:14.485Z,14.50
2019-03-23T12:52:43.961Z,14.90
2019-03-23T12:55:13.480Z,15.00
2019-03-23T12:57:42.958Z,15.00
2019-03-23T13:00:14.955Z,14.20
2019-03-23T13:02:44.439Z,13.80
2019-03-23T13:05:14.961Z,13.90
2019-03-23T13:07:44.433Z,14.20
2019-03-23T13:10:14.930Z,14.20
2019-03-23T13:12:45.368Z,14.00
2019-03-23T13:15:16.164Z,14.20
2019-03-23T13:17:45.705Z,13.90
2019-03-23T13:20:15.343Z,13.50
2019-03-23T13:22:44.894Z,13.90
2019-03-23T13:25:14.348Z,13.60
2019-03-23T13:27:43.849Z,14.20
2019-03-23T13:30:15.428Z,13.80
2019-03-23T13:32:44.905Z,13.40
2019-03-23T13:35:14.623Z,13.20
2019-03-23T13:37:44.121Z,13.40
2019-03-23T13:40:13.712Z,13.70
2019-03-23T13:42:46.924Z,13.60
2019-03-23T13:45:16.437Z,13.60
2019-03-23T13:47:45.912Z,13.90
2019-03-23T13:50:18.461Z,14.20
2019-03-23T13:52:47.952Z,14.00
2019-03-23T13:55:31.693Z,13.60
2019-03-23T13:58:14.461Z,13.60
2019-03-23T14:00:44.000Z,13.60
2019-03-23T14:03:13.544Z,13.60
2019-03-23T14:05:43.011Z,13.60
2019-03-23T14:08:12.485Z,13.70
2019-03-23T14:10:41.956Z,13.40
2019-03-23T14:13:11.421Z,13.50
2019-03-23T14:15:40.878Z,13.50
2019-03-23T14:18:10.344Z,13.40
2019-03-23T14:20:39.797Z,13.10
2019-03-23T14:23:09.293Z,13.00
2019-03-23T14:25:38.732Z,13.10
2019-03-23T14:28:08.341Z,12.90
2019-03-23T14:30:37.783Z,12.70
2019-03-23T14:33:07.261Z,12.50
2019-03-23T14:35:36.885Z,12.40
2019-03-23T14:38:06.379Z,12.40
2019-03-23T14:40:35.844Z,12.30
2019-03-23T14:43:05.312Z,12.20
2019-03-23T14:45:36.883Z,12.10
2019-03-23T14:48:05.852Z,12.00
2019-03-23T14:50:35.325Z,11.90
2019-03-23T14:53:04.770Z,11.80
2019-03-23T14:55:34.262Z,11.80
2019-03-23T14:58:03.710Z,11.90
2019-03-23T15:00:34.048Z,11.90
2019-03-23T15:03:03.494Z,11.80
2019-03-23T15:05:32.964Z,11.90
2019-03-23T15:08:02.416Z,11.90
2019-03-23T15:10:31.877Z,11.90
2019-03-23T15:13:01.325Z,11.90
2019-03-23T15:15:30.824Z,11.80
2019-03-23T15:18:00.276Z,11.90
2019-03-23T15:20:29.773Z,11.90
2019-03-23T15:22:59.217Z,11.90
2019-03-23T15:25:28.713Z,11.90
2019-03-23T15:27:58.192Z,11.90
2019-03-23T15:30:27.686Z,11.90
2019-03-23T15:32:57.137Z,11.90
2019-03-23T15:35:26.615Z,11.90
2019-03-23T15:37:56.064Z,11.80
2019-03-23T15:40:25.541Z,11.80
2019-03-23T15:42:54.976Z,11.70
2019-03-23T15:45:24.521Z,11.60
2019-03-23T15:47:53.973Z,11.50
2019-03-23T15:50:23.444Z,11.50
2019-03-23T15:52:52.887Z,11.40
2019-03-23T15:55:22.368Z,11.50
2019-03-23T15:57:51.816Z,11.60
2019-03-23T16:00:21.354Z,11.50
2019-03-23T16:02:55.618Z,11.50
2019-03-23T16:05:25.080Z,11.40
2019-03-23T16:07:54.539Z,11.40
2019-03-23T16:10:24.006Z,11.30
2019-03-23T16:12:53.475Z,11.30
2019-03-23T16:15:22.945Z,11.20
2019-03-23T16:17:52.417Z,11.20
2019-03-23T16:20:21.891Z,11.10
2019-03-23T16:22:51.407Z,11.00
2019-03-23T16:25:20.894Z,11.00
2019-03-23T16:27:50.338Z,11.00
2019-03-23T16:30:30.834Z,10.90
2019-03-23T16:33:00.280Z,10.70
2019-03-23T16:35:29.786Z,10.60
2019-03-23T16:37:59.297Z,10.60
2019-03-23T16:40:29.458Z,10.60
2019-03-23T16:43:18.283Z,10.60
2019-03-23T16:45:47.770Z,10.60
2019-03-23T16:48:18.780Z,10.60
2019-03-23T16:50:48.363Z,10.60
2019-03-23T16:53:17.903Z,10.50
2019-03-23T16:55:47.405Z,10.50
2019-03-23T16:58:16.871Z,10.40
2019-03-23T17:00:46.384Z,10.20
2019-03-23T17:03:35.179Z,10.10
2019-03-23T17:06:04.800Z,9.90
2019-03-23T17:08:34.254Z,9.90
2019-03-23T17:11:04.885Z,9.90
2019-03-23T17:13:34.435Z,9.80
2019-03-23T17:16:03.935Z,9.80
2019-03-23T17:18:33.414Z,9.80
2019-03-23T17:21:02.902Z,9.80
2019-03-23T17:23:32.355Z,9.80
2019-03-23T17:26:01.839Z,9.80
2019-03-23T17:28:31.291Z,9.80
2019-03-23T17:31:00.779Z,9.80
2019-03-23T17:33:30.322Z,9.80
2019-03-23T17:35:59.794Z,9.70
2019-03-23T17:38:29.281Z,9.70
2019-03-23T17:40:58.982Z,9.70
2019-03-23T17:43:28.506Z,9.70
2019-03-23T17:45:57.994Z,9.70
2019-03-23T17:48:27.452Z,9.60
2019-03-23T17:50:57.004Z,9.60
2019-03-23T17:53:26.454Z,9.60
2019-03-23T17:55:56.014Z,9.60
2019-03-23T17:58:25.469Z,9.60
2019-03-23T18:00:55.018Z,9.60
2019-03-23T18:03:24.475Z,9.60
2019-03-23T18:05:53.965Z,9.50
2019-03-23T18:08:23.444Z,9.60
2019-03-23T18:10:53.006Z,9.50
2019-03-23T18:13:22.471Z,9.50
2019-03-23T18:15:51.948Z,9.50
2019-03-23T18:18:21.524Z,9.50
2019-03-23T18:20:51.012Z,9.50
2019-03-23T18:23:20.469Z,9.50
2019-03-23T18:25:49.978Z,9.50
2019-03-23T18:28:19.449Z,9.50
2019-03-23T18:30:48.926Z,9.40
2019-03-23T18:33:18.951Z,9.30
2019-03-23T18:35:48.491Z,9.30
2019-03-23T18:38:18.023Z,9.20
2019-03-23T18:40:47.839Z,9.20
2019-03-23T18:43:27.015Z,9.20
2019-03-23T18:45:50.703Z,9.20
2019-03-23T18:48:20.168Z,9.20
2019-03-23T18:50:49.751Z,9.10
2019-03-23T18:53:19.222Z,9.10
2019-03-23T18:55:48.684Z,9.10
2019-03-23T18:58:18.155Z,9.00
2019-03-23T19:00:48.698Z,9.00
2019-03-23T19:03:18.267Z,8.90
2019-03-23T19:05:47.728Z,8.90
2019-03-23T19:08:17.203Z,8.90
2019-03-23T19:10:46.694Z,8.90
2019-03-23T19:13:16.194Z,8.80
2019-03-23T19:15:45.766Z,8.80
2019-03-23T19:18:15.298Z,8.80
2019-03-23T19:20:44.940Z,8.70
2019-03-23T19:23:14.562Z,8.70
2019-03-23T19:25:43.963Z,8.70
2019-03-23T19:28:13.433Z,8.70
2019-03-23T19:30:42.901Z,8.70
2019-03-23T19:33:12.384Z,8.70
2019-03-23T19:35:41.826Z,8.70
2019-03-23T19:38:11.379Z,8.70
2019-03-23T19:40:40.835Z,8.60
2019-03-23T19:43:11.379Z,8.60
2019-03-23T19:45:40.834Z,8.60
2019-03-23T19:48:10.318Z,8.60
2019-03-23T19:50:39.782Z,8.60
2019-03-23T19:53:09.266Z,8.60
2019-03-23T19:55:38.707Z,8.60
2019-03-23T19:58:08.191Z,8.60
2019-03-23T20:00:37.646Z,8.60
2019-03-23T20:03:07.127Z,8.60
2019-03-23T20:05:36.587Z,8.50
2019-03-23T20:08:06.066Z,8.50
2019-03-23T20:10:35.862Z,8.50
2019-03-23T20:13:05.433Z,8.50
2019-03-23T20:15:34.861Z,8.40
2019-03-23T20:18:04.728Z,8.40
2019-03-23T20:20:34.173Z,8.40
2019-03-23T20:23:03.722Z,8.30
2019-03-23T20:25:33.182Z,8.30
2019-03-23T20:28:02.739Z,8.20
2019-03-23T20:30:32.218Z,8.00
2019-03-23T20:33:01.795Z,8.00
2019-03-23T20:35:31.238Z,7.90
2019-03-23T20:38:00.811Z,7.90
2019-03-23T20:40:31.429Z,7.90
2019-03-23T20:43:00.914Z,7.80
2019-03-23T20:45:31.394Z,7.70
2019-03-23T20:48:00.891Z,7.70
2019-03-23T20:50:30.332Z,7.60
2019-03-23T20:53:00.079Z,7.60
2019-03-23T20:55:30.490Z,7.50
2019-03-23T20:58:00.263Z,7.40
2019-03-23T21:00:29.712Z,7.40
2019-03-23T21:02:59.350Z,7.40
2019-03-23T21:05:33.872Z,7.30
2019-03-23T21:08:00.050Z,7.30
2019-03-23T21:10:29.658Z,7.20
2019-03-23T21:12:59.142Z,7.10
2019-03-23T21:15:28.607Z,7.00
2019-03-23T21:17:58.175Z,6.80
2019-03-23T21:20:27.728Z,6.70
2019-03-23T21:22:57.185Z,6.60
2019-03-23T21:25:26.638Z,6.50
2019-03-23T21:27:56.994Z,6.50
2019-03-23T21:30:26.467Z,6.50
2019-03-23T21:32:56.019Z,6.50
2019-03-23T21:35:25.474Z,6.50
2019-03-23T21:37:54.958Z,6.50
2019-03-23T21:40:24.424Z,6.50
2019-03-23T21:42:53.903Z,6.50
2019-03-23T21:45:23.430Z,6.40
2019-03-23T21:47:52.907Z,6.40
2019-03-23T21:50:22.365Z,6.30
2019-03-23T21:52:51.875Z,6.30
2019-03-23T21:55:21.385Z,6.20
2019-03-23T21:57:50.786Z,6.10
2019-03-23T22:00:34.355Z,5.90
2019-03-23T22:03:04.396Z,5.90
2019-03-23T22:05:33.846Z,5.90
2019-03-23T22:08:03.300Z,5.80
2019-03-23T22:10:32.850Z,5.80
2019-03-23T22:13:02.299Z,5.70
2019-03-23T22:15:33.917Z,5.60
2019-03-23T22:18:03.456Z,5.50
2019-03-23T22:20:32.930Z,5.50
2019-03-23T22:23:02.443Z,5.50
2019-03-23T22:25:31.922Z,5.40
2019-03-23T22:28:01.380Z,5.30
2019-03-23T22:30:30.850Z,5.30
2019-03-23T22:33:00.444Z,5.20
2019-03-23T22:35:29.918Z,5.10
2019-03-23T22:37:59.371Z,5.10
2019-03-23T22:40:28.843Z,4.90
2019-03-23T22:42:58.294Z,4.90
2019-03-23T22:45:27.792Z,4.90
2019-03-23T22:47:57.236Z,4.90
2019-03-23T22:50:26.716Z,4.80
2019-03-23T22:52:56.166Z,4.70
2019-03-23T22:55:25.638Z,4.70
2019-03-23T22:57:55.086Z,4.60
2019-03-23T23:00:41.683Z,4.50
2019-03-23T23:03:11.799Z,4.40
2019-03-23T23:05:42.605Z,4.30
2019-03-23T23:08:12.059Z,4.20
2019-03-23T23:10:42.670Z,4.20
2019-03-23T23:13:13.201Z,4.10
2019-03-23T23:15:42.675Z,4.10
2019-03-23T23:18:12.151Z,4.10
2019-03-23T23:20:41.615Z,4.00
2019-03-23T23:23:11.062Z,3.90
2019-03-23T23:25:40.539Z,3.80
2019-03-23T23:28:09.979Z,3.80
2019-03-23T23:30:39.472Z,3.80
2019-03-23T23:33:09.984Z,3.80
2019-03-23T23:35:39.478Z,3.70
2019-03-23T23:38:08.946Z,3.70
2019-03-23T23:40:38.442Z,3.60
2019-03-23T23:43:07.899Z,3.60
2019-03-23T23:45:37.378Z,3.60
2019-03-23T23:48:06.856Z,3.60
2019-03-23T23:50:36.332Z,3.60
2019-03-23T23:53:05.776Z,3.50
2019-03-23T23:55:35.269Z,3.40
2019-03-23T23:58:04.786Z,3.30
